Airport View

Enter AWOS ICAO identifier for current METAR.

ex. KFNL

KTIW 261153Z AUTO 19004KT 10SM SCT036 BKN075 11/10 A2991 RMK AO2 SLP128 T01060100 10139 20106 58002 $

26 Jun 2019 12:36

Phone: 253-858-6507

Other Area AWOS: KTCM - KGRF - KSEA - KPWT

TAF KTCM 260500Z 2605/2711 VRB06KT 9999 SCT030 BKN100 QNH2990INS BECMG 2612/2613 VRB06KT 9999 BKN015 QNH2988INS BECMG 2615/2616 VRB06KT 9999 SCT050 BKN100 QNH2986INS BECMG 2622/2623 VRB06KT 9999 VCSH BKN050 OVC100 QNH2970INS BECMG 2705/2706 VRB06KT 9999 NSW BKN020 QNH2995INS TX22/2621Z TN10/2612Z